sensor_id;sensor_type;location;lat;lon;timestamp;pressure;altitude;pressure_sealevel;temperature;humidity
59650;BME280;46162;57.568;25.814;2023-09-19T00:00:47;100493.19;;;12.02;100.00
59650;BME280;46162;57.568;25.814;2023-09-19T00:03:16;100498.81;;;12.25;100.00
59650;BME280;46162;57.568;25.814;2023-09-19T00:05:45;100498.47;;;12.20;100.00
59650;BME280;46162;57.568;25.814;2023-09-19T00:08:14;100507.09;;;12.24;100.00
59650;BME280;46162;57.568;25.814;2023-09-19T00:10:43;100506.41;;;12.22;100.00
59650;BME280;46162;57.568;25.814;2023-09-19T00:13:14;100512.84;;;12.21;100.00
59650;BME280;46162;57.568;25.814;2023-09-19T00:15:44;100505.19;;;12.08;100.00
59650;BME280;46162;57.568;25.814;2023-09-19T00:18:17;100504.69;;;12.04;100.00
59650;BME280;46162;57.568;25.814;2023-09-19T00:20:47;100499.94;;;12.07;100.00
59650;BME280;46162;57.568;25.814;2023-09-19T00:23:17;100502.16;;;12.03;100.00
59650;BME280;46162;57.568;25.814;2023-09-19T00:25:47;100498.06;;;11.99;100.00
59650;BME280;46162;57.568;25.814;2023-09-19T00:28:17;100498.06;;;11.99;100.00
59650;BME280;46162;57.568;25.814;2023-09-19T00:30:48;100494.38;;;12.08;100.00
59650;BME280;46162;57.568;25.814;2023-09-19T00:33:18;100494.53;;;12.07;100.00
59650;BME280;46162;57.568;25.814;2023-09-19T00:35:48;100493.69;;;12.06;100.00
59650;BME280;46162;57.568;25.814;2023-09-19T00:38:17;100488.47;;;12.13;100.00
59650;BME280;46162;57.568;25.814;2023-09-19T00:40:49;100488.47;;;12.21;100.00
59650;BME280;46162;57.568;25.814;2023-09-19T00:43:20;100488.97;;;12.16;100.00
59650;BME280;46162;57.568;25.814;2023-09-19T00:46:03;100481.56;;;12.26;100.00
59650;BME280;46162;57.568;25.814;2023-09-19T00:48:38;100476.13;;;12.10;100.00
59650;BME280;46162;57.568;25.814;2023-09-19T00:51:11;100474.25;;;12.02;100.00
59650;BME280;46162;57.568;25.814;2023-09-19T00:53:41;100477.78;;;12.03;100.00
59650;BME280;46162;57.568;25.814;2023-09-19T00:56:14;100478.13;;;12.00;100.00
59650;BME280;46162;57.568;25.814;2023-09-19T00:58:48;100476.25;;;11.92;100.00
59650;BME280;46162;57.568;25.814;2023-09-19T01:01:17;100481.00;;;12.07;100.00
59650;BME280;46162;57.568;25.814;2023-09-19T01:03:46;100481.84;;;11.99;100.00
59650;BME280;46162;57.568;25.814;2023-09-19T01:06:16;100479.66;;;12.11;100.00
59650;BME280;46162;57.568;25.814;2023-09-19T01:08:44;100484.59;;;12.15;100.00
59650;BME280;46162;57.568;25.814;2023-09-19T01:11:20;100481.38;;;12.12;100.00
59650;BME280;46162;57.568;25.814;2023-09-19T01:13:58;100480.50;;;12.11;100.00
59650;BME280;46162;57.568;25.814;2023-09-19T01:16:39;100478.50;;;12.30;100.00
59650;BME280;46162;57.568;25.814;2023-09-19T01:19:32;100478.16;;;12.24;100.00
59650;BME280;46162;57.568;25.814;2023-09-19T01:22:07;100480.56;;;12.44;100.00
59650;BME280;46162;57.568;25.814;2023-09-19T01:28:07;100468.00;;;12.51;100.00
59650;BME280;46162;57.568;25.814;2023-09-19T01:30:44;100459.03;;;12.51;100.00
59650;BME280;46162;57.568;25.814;2023-09-19T01:33:14;100468.19;;;12.50;100.00
59650;BME280;46162;57.568;25.814;2023-09-19T01:35:45;100468.84;;;12.43;100.00
59650;BME280;46162;57.568;25.814;2023-09-19T01:38:14;100456.16;;;12.68;100.00
59650;BME280;46162;57.568;25.814;2023-09-19T01:40:47;100447.88;;;12.62;100.00
59650;BME280;46162;57.568;25.814;2023-09-19T01:43:25;100454.16;;;12.54;100.00
59650;BME280;46162;57.568;25.814;2023-09-19T01:46:02;100450.91;;;12.67;100.00
59650;BME280;46162;57.568;25.814;2023-09-19T01:48:38;100446.19;;;12.69;100.00
59650;BME280;46162;57.568;25.814;2023-09-19T01:51:11;100448.22;;;12.59;100.00
59650;BME280;46162;57.568;25.814;2023-09-19T01:53:50;100447.38;;;12.66;100.00
59650;BME280;46162;57.568;25.814;2023-09-19T01:56:24;100431.78;;;12.60;100.00
59650;BME280;46162;57.568;25.814;2023-09-19T01:58:56;100431.25;;;12.73;100.00
59650;BME280;46162;57.568;25.814;2023-09-19T02:01:28;100435.16;;;12.79;100.00
59650;BME280;46162;57.568;25.814;2023-09-19T02:03:57;100437.47;;;12.90;100.00
59650;BME280;46162;57.568;25.814;2023-09-19T02:06:26;100430.69;;;13.02;100.00
59650;BME280;46162;57.568;25.814;2023-09-19T02:08:55;100433.88;;;13.14;100.00
59650;BME280;46162;57.568;25.814;2023-09-19T02:11:24;100435.78;;;12.97;100.00
59650;BME280;46162;57.568;25.814;2023-09-19T02:13:53;100436.09;;;13.02;100.00
59650;BME280;46162;57.568;25.814;2023-09-19T02:16:22;100427.16;;;12.94;100.00
59650;BME280;46162;57.568;25.814;2023-09-19T02:18:52;100430.69;;;13.02;100.00
59650;BME280;46162;57.568;25.814;2023-09-19T02:21:20;100433.53;;;13.09;100.00
59650;BME280;46162;57.568;25.814;2023-09-19T02:23:49;100426.06;;;13.19;100.00
59650;BME280;46162;57.568;25.814;2023-09-19T02:26:18;100425.22;;;13.19;100.00
59650;BME280;46162;57.568;25.814;2023-09-19T02:28:48;100425.16;;;13.35;100.00
59650;BME280;46162;57.568;25.814;2023-09-19T02:31:16;100410.63;;;13.20;100.00
59650;BME280;46162;57.568;25.814;2023-09-19T02:33:45;100410.25;;;13.23;100.00
59650;BME280;46162;57.568;25.814;2023-09-19T02:36:16;100407.06;;;13.27;100.00
59650;BME280;46162;57.568;25.814;2023-09-19T02:38:44;100401.13;;;13.32;100.00
59650;BME280;46162;57.568;25.814;2023-09-19T02:41:14;100398.56;;;13.39;100.00
59650;BME280;46162;57.568;25.814;2023-09-19T02:43:43;100404.81;;;13.39;100.00
59650;BME280;46162;57.568;25.814;2023-09-19T02:46:12;100403.75;;;13.48;100.00
59650;BME280;46162;57.568;25.814;2023-09-19T02:48:41;100398.47;;;13.55;100.00
59650;BME280;46162;57.568;25.814;2023-09-19T02:51:10;100401.94;;;13.41;100.00
59650;BME280;46162;57.568;25.814;2023-09-19T02:53:40;100399.03;;;13.42;100.00
59650;BME280;46162;57.568;25.814;2023-09-19T02:56:09;100388.75;;;13.29;100.00
59650;BME280;46162;57.568;25.814;2023-09-19T02:58:41;100382.94;;;13.41;100.00
59650;BME280;46162;57.568;25.814;2023-09-19T03:01:10;100384.31;;;13.37;100.00
59650;BME280;46162;57.568;25.814;2023-09-19T03:03:40;100374.38;;;13.29;100.00
59650;BME280;46162;57.568;25.814;2023-09-19T03:06:09;100374.97;;;13.39;100.00
59650;BME280;46162;57.568;25.814;2023-09-19T03:08:42;100377.63;;;13.47;100.00
59650;BME280;46162;57.568;25.814;2023-09-19T03:11:12;100372.53;;;13.52;100.00
59650;BME280;46162;57.568;25.814;2023-09-19T03:13:46;100362.47;;;13.61;100.00
59650;BME280;46162;57.568;25.814;2023-09-19T03:16:15;100358.03;;;13.68;100.00
59650;BME280;46162;57.568;25.814;2023-09-19T03:18:44;100350.44;;;13.64;100.00
59650;BME280;46162;57.568;25.814;2023-09-19T03:21:15;100340.41;;;13.64;100.00
59650;BME280;46162;57.568;25.814;2023-09-19T03:23:48;100345.47;;;13.44;100.00
59650;BME280;46162;57.568;25.814;2023-09-19T03:26:16;100335.03;;;13.33;100.00
59650;BME280;46162;57.568;25.814;2023-09-19T03:28:47;100340.03;;;13.44;100.00
59650;BME280;46162;57.568;25.814;2023-09-19T03:31:16;100332.63;;;13.38;100.00
59650;BME280;46162;57.568;25.814;2023-09-19T03:33:46;100335.22;;;13.23;100.00
59650;BME280;46162;57.568;25.814;2023-09-19T03:36:15;100319.47;;;13.27;100.00
59650;BME280;46162;57.568;25.814;2023-09-19T03:38:44;100331.84;;;13.21;100.00
59650;BME280;46162;57.568;25.814;2023-09-19T03:41:14;100319.28;;;13.20;100.00
59650;BME280;46162;57.568;25.814;2023-09-19T03:43:49;100322.56;;;13.16;100.00
59650;BME280;46162;57.568;25.814;2023-09-19T03:46:18;100321.84;;;13.22;100.00
59650;BME280;46162;57.568;25.814;2023-09-19T03:48:48;100316.63;;;13.12;100.00
59650;BME280;46162;57.568;25.814;2023-09-19T03:51:17;100315.84;;;13.03;100.00
59650;BME280;46162;57.568;25.814;2023-09-19T03:53:46;100312.16;;;12.96;100.00
59650;BME280;46162;57.568;25.814;2023-09-19T03:56:18;100315.19;;;13.01;100.00
59650;BME280;46162;57.568;25.814;2023-09-19T03:58:46;100312.41;;;13.09;100.00
59650;BME280;46162;57.568;25.814;2023-09-19T04:01:16;100302.63;;;13.00;100.00
59650;BME280;46162;57.568;25.814;2023-09-19T04:03:45;100303.97;;;13.04;100.00
59650;BME280;46162;57.568;25.814;2023-09-19T04:06:15;100302.94;;;13.05;100.00
59650;BME280;46162;57.568;25.814;2023-09-19T04:08:44;100301.31;;;12.96;100.00
59650;BME280;46162;57.568;25.814;2023-09-19T04:11:14;100304.81;;;13.05;100.00
59650;BME280;46162;57.568;25.814;2023-09-19T04:13:47;100302.31;;;12.95;100.00
59650;BME280;46162;57.568;25.814;2023-09-19T04:16:16;100286.44;;;12.92;100.00
59650;BME280;46162;57.568;25.814;2023-09-19T04:18:45;100276.94;;;12.88;100.00
59650;BME280;46162;57.568;25.814;2023-09-19T04:21:14;100276.47;;;12.84;100.00
59650;BME280;46162;57.568;25.814;2023-09-19T04:23:43;100268.56;;;12.75;100.00
59650;BME280;46162;57.568;25.814;2023-09-19T04:26:12;100271.44;;;12.73;100.00
59650;BME280;46162;57.568;25.814;2023-09-19T04:28:40;100270.44;;;12.74;100.00
59650;BME280;46162;57.568;25.814;2023-09-19T04:31:11;100271.00;;;12.93;100.00
59650;BME280;46162;57.568;25.814;2023-09-19T04:33:41;100283.34;;;12.95;100.00
59650;BME280;46162;57.568;25.814;2023-09-19T04:36:10;100282.00;;;12.99;100.00
59650;BME280;46162;57.568;25.814;2023-09-19T04:39:00;100281.81;;;13.01;100.00
59650;BME280;46162;57.568;25.814;2023-09-19T04:41:32;100275.44;;;13.17;100.00
59650;BME280;46162;57.568;25.814;2023-09-19T04:44:01;100265.94;;;13.21;100.00
59650;BME280;46162;57.568;25.814;2023-09-19T04:46:32;100268.97;;;13.26;100.00
59650;BME280;46162;57.568;25.814;2023-09-19T04:49:01;100262.53;;;13.27;100.00
59650;BME280;46162;57.568;25.814;2023-09-19T04:51:30;100259.81;;;13.27;100.00
59650;BME280;46162;57.568;25.814;2023-09-19T04:54:01;100256.41;;;13.33;100.00
59650;BME280;46162;57.568;25.814;2023-09-19T04:56:30;100259.34;;;13.46;100.00
59650;BME280;46162;57.568;25.814;2023-09-19T04:58:59;100258.59;;;13.52;100.00
59650;BME280;46162;57.568;25.814;2023-09-19T05:01:28;100252.41;;;13.67;100.00
59650;BME280;46162;57.568;25.814;2023-09-19T05:03:58;100244.50;;;13.57;100.00
59650;BME280;46162;57.568;25.814;2023-09-19T05:06:27;100235.78;;;13.47;100.00
59650;BME280;46162;57.568;25.814;2023-09-19T05:08:55;100242.97;;;13.63;100.00
59650;BME280;46162;57.568;25.814;2023-09-19T05:11:24;100239.09;;;13.57;100.00
59650;BME280;46162;57.568;25.814;2023-09-19T05:13:53;100228.44;;;13.55;100.00
59650;BME280;46162;57.568;25.814;2023-09-19T05:16:22;100234.81;;;13.63;100.00
59650;BME280;46162;57.568;25.814;2023-09-19T05:18:51;100221.94;;;13.80;100.00
59650;BME280;46162;57.568;25.814;2023-09-19T05:21:21;100220.44;;;13.77;100.00
59650;BME280;46162;57.568;25.814;2023-09-19T05:23:51;100219.81;;;13.90;100.00
59650;BME280;46162;57.568;25.814;2023-09-19T05:26:20;100214.44;;;13.82;100.00
59650;BME280;46162;57.568;25.814;2023-09-19T05:28:49;100209.78;;;13.75;100.00
59650;BME280;46162;57.568;25.814;2023-09-19T05:31:18;100187.88;;;13.77;100.00
59650;BME280;46162;57.568;25.814;2023-09-19T05:33:49;100181.31;;;13.71;100.00
59650;BME280;46162;57.568;25.814;2023-09-19T05:36:18;100180.78;;;13.76;100.00
59650;BME280;46162;57.568;25.814;2023-09-19T05:38:48;100179.28;;;13.88;100.00
59650;BME280;46162;57.568;25.814;2023-09-19T05:41:18;100174.69;;;14.04;100.00
59650;BME280;46162;57.568;25.814;2023-09-19T05:43:49;100178.84;;;14.29;100.00
59650;BME280;46162;57.568;25.814;2023-09-19T05:46:18;100181.81;;;14.34;100.00
59650;BME280;46162;57.568;25.814;2023-09-19T05:48:47;100191.81;;;14.49;100.00
59650;BME280;46162;57.568;25.814;2023-09-19T05:51:17;100183.88;;;14.62;100.00
59650;BME280;46162;57.568;25.814;2023-09-19T05:53:49;100188.38;;;14.55;100.00
59650;BME280;46162;57.568;25.814;2023-09-19T05:56:17;100171.25;;;14.54;100.00
59650;BME280;46162;57.568;25.814;2023-09-19T05:58:46;100178.13;;;14.72;100.00
59650;BME280;46162;57.568;25.814;2023-09-19T06:01:16;100176.59;;;14.84;100.00
59650;BME280;46162;57.568;25.814;2023-09-19T06:03:45;100175.69;;;14.77;100.00
59650;BME280;46162;57.568;25.814;2023-09-19T06:06:14;100162.78;;;14.86;100.00
59650;BME280;46162;57.568;25.814;2023-09-19T06:08:42;100161.78;;;14.87;100.00
59650;BME280;46162;57.568;25.814;2023-09-19T06:11:14;100148.19;;;14.87;100.00
59650;BME280;46162;57.568;25.814;2023-09-19T06:13:43;100146.13;;;14.89;100.00
59650;BME280;46162;57.568;25.814;2023-09-19T06:16:14;100142.88;;;15.00;100.00
59650;BME280;46162;57.568;25.814;2023-09-19T06:18:43;100139.25;;;15.14;100.00
59650;BME280;46162;57.568;25.814;2023-09-19T06:21:12;100135.38;;;15.23;100.00
59650;BME280;46162;57.568;25.814;2023-09-19T06:23:44;100140.66;;;15.32;100.00
59650;BME280;46162;57.568;25.814;2023-09-19T06:26:14;100135.22;;;15.32;100.00
59650;BME280;46162;57.568;25.814;2023-09-19T06:28:43;100135.28;;;15.38;100.00
59650;BME280;46162;57.568;25.814;2023-09-19T06:31:12;100132.56;;;15.38;100.00
59650;BME280;46162;57.568;25.814;2023-09-19T06:33:40;100133.91;;;15.49;100.00
59650;BME280;46162;57.568;25.814;2023-09-19T06:36:10;100132.06;;;15.56;100.00
59650;BME280;46162;57.568;25.814;2023-09-19T06:38:39;100143.06;;;15.69;100.00
59650;BME280;46162;57.568;25.814;2023-09-19T06:41:08;100126.63;;;15.78;100.00
59650;BME280;46162;57.568;25.814;2023-09-19T06:43:39;100117.19;;;15.80;100.00
59650;BME280;46162;57.568;25.814;2023-09-19T06:46:08;100118.09;;;15.94;100.00
59650;BME280;46162;57.568;25.814;2023-09-19T06:48:37;100114.00;;;16.11;100.00
59650;BME280;46162;57.568;25.814;2023-09-19T06:51:07;100111.50;;;16.17;100.00
59650;BME280;46162;57.568;25.814;2023-09-19T06:53:37;100104.06;;;16.32;100.00
59650;BME280;46162;57.568;25.814;2023-09-19T06:56:07;100087.94;;;16.44;100.00
59650;BME280;46162;57.568;25.814;2023-09-19T06:58:36;100069.69;;;16.44;100.00
59650;BME280;46162;57.568;25.814;2023-09-19T07:01:07;100075.78;;;16.46;100.00
59650;BME280;46162;57.568;25.814;2023-09-19T07:03:35;100070.19;;;16.68;100.00
59650;BME280;46162;57.568;25.814;2023-09-19T07:06:04;100056.34;;;16.63;100.00
59650;BME280;46162;57.568;25.814;2023-09-19T07:08:36;100038.31;;;16.68;100.00
59650;BME280;46162;57.568;25.814;2023-09-19T07:11:05;100040.84;;;16.70;100.00
59650;BME280;46162;57.568;25.814;2023-09-19T07:13:34;100035.00;;;16.93;100.00
59650;BME280;46162;57.568;25.814;2023-09-19T07:16:04;100022.44;;;16.85;100.00
59650;BME280;46162;57.568;25.814;2023-09-19T07:18:34;100024.53;;;16.96;100.00
59650;BME280;46162;57.568;25.814;2023-09-19T07:21:04;100011.97;;;17.09;100.00
59650;BME280;46162;57.568;25.814;2023-09-19T07:23:33;100002.47;;;17.18;100.00
59650;BME280;46162;57.568;25.814;2023-09-19T07:26:02;99976.91;;;17.19;100.00
59650;BME280;46162;57.568;25.814;2023-09-19T07:28:32;99980.69;;;17.11;100.00
59650;BME280;46162;57.568;25.814;2023-09-19T07:31:02;99983.59;;;17.23;100.00
59650;BME280;46162;57.568;25.814;2023-09-19T07:33:33;99972.03;;;17.34;100.00
59650;BME280;46162;57.568;25.814;2023-09-19T07:36:02;99974.34;;;17.31;100.00
59650;BME280;46162;57.568;25.814;2023-09-19T07:38:31;99973.69;;;17.35;100.00
59650;BME280;46162;57.568;25.814;2023-09-19T07:41:00;99970.75;;;17.37;100.00
59650;BME280;46162;57.568;25.814;2023-09-19T07:43:29;99969.88;;;17.56;100.00
59650;BME280;46162;57.568;25.814;2023-09-19T07:46:03;99974.50;;;17.56;100.00
59650;BME280;46162;57.568;25.814;2023-09-19T07:48:36;99966.25;;;17.62;100.00
59650;BME280;46162;57.568;25.814;2023-09-19T07:51:05;99956.63;;;17.60;100.00
59650;BME280;46162;57.568;25.814;2023-09-19T07:53:35;99950.53;;;17.58;100.00
59650;BME280;46162;57.568;25.814;2023-09-19T07:56:06;99951.13;;;17.73;100.00
59650;BME280;46162;57.568;25.814;2023-09-19T07:58:35;99939.41;;;17.66;100.00
59650;BME280;46162;57.568;25.814;2023-09-19T08:01:05;99941.88;;;17.74;100.00
59650;BME280;46162;57.568;25.814;2023-09-19T08:03:36;99940.41;;;17.72;100.00
59650;BME280;46162;57.568;25.814;2023-09-19T08:06:08;99939.31;;;17.79;100.00
59650;BME280;46162;57.568;25.814;2023-09-19T08:08:37;99943.09;;;17.85;100.00
59650;BME280;46162;57.568;25.814;2023-09-19T08:11:06;99938.06;;;17.89;100.00
59650;BME280;46162;57.568;25.814;2023-09-19T08:13:39;99934.75;;;18.12;100.00
59650;BME280;46162;57.568;25.814;2023-09-19T08:16:11;99930.31;;;18.17;100.00
59650;BME280;46162;57.568;25.814;2023-09-19T08:18:41;99930.25;;;18.31;100.00
59650;BME280;46162;57.568;25.814;2023-09-19T08:21:11;99936.25;;;18.39;100.00
59650;BME280;46162;57.568;25.814;2023-09-19T08:23:44;99932.59;;;18.52;100.00
59650;BME280;46162;57.568;25.814;2023-09-19T08:26:12;99926.69;;;18.55;100.00
59650;BME280;46162;57.568;25.814;2023-09-19T08:28:41;99923.50;;;18.58;100.00
59650;BME280;46162;57.568;25.814;2023-09-19T08:31:10;99917.69;;;18.73;100.00
59650;BME280;46162;57.568;25.814;2023-09-19T08:33:41;99922.78;;;18.69;100.00
59650;BME280;46162;57.568;25.814;2023-09-19T08:36:12;99915.41;;;18.70;100.00
59650;BME280;46162;57.568;25.814;2023-09-19T08:38:41;99917.84;;;18.85;100.00
59650;BME280;46162;57.568;25.814;2023-09-19T08:41:09;99924.25;;;18.97;100.00
59650;BME280;46162;57.568;25.814;2023-09-19T08:43:39;99923.56;;;19.02;100.00
59650;BME280;46162;57.568;25.814;2023-09-19T08:46:11;99917.84;;;19.03;100.00
59650;BME280;46162;57.568;25.814;2023-09-19T08:48:46;99919.03;;;19.14;100.00
59650;BME280;46162;57.568;25.814;2023-09-19T08:51:20;99913.31;;;19.16;100.00
59650;BME280;46162;57.568;25.814;2023-09-19T08:53:52;99903.19;;;19.16;100.00
59650;BME280;46162;57.568;25.814;2023-09-19T08:56:23;99905.25;;;19.21;100.00
59650;BME280;46162;57.568;25.814;2023-09-19T08:58:57;99902.53;;;19.39;100.00
59650;BME280;46162;57.568;25.814;2023-09-19T09:01:28;99904.34;;;19.64;100.00
59650;BME280;46162;57.568;25.814;2023-09-19T09:04:01;99902.03;;;19.61;100.00
59650;BME280;46162;57.568;25.814;2023-09-19T09:06:31;99898.47;;;19.60;100.00
59650;BME280;46162;57.568;25.814;2023-09-19T09:09:01;99885.09;;;19.70;100.00
59650;BME280;46162;57.568;25.814;2023-09-19T09:11:33;99888.22;;;19.74;100.00
59650;BME280;46162;57.568;25.814;2023-09-19T09:14:01;99890.34;;;19.72;100.00
59650;BME280;46162;57.568;25.814;2023-09-19T09:16:30;99888.13;;;19.81;100.00
59650;BME280;46162;57.568;25.814;2023-09-19T09:19:01;99892.13;;;19.78;100.00
59650;BME280;46162;57.568;25.814;2023-09-19T09:21:29;99887.09;;;19.93;100.00
59650;BME280;46162;57.568;25.814;2023-09-19T09:24:30;99897.03;;;20.06;100.00
59650;BME280;46162;57.568;25.814;2023-09-19T09:27:03;99882.72;;;20.04;100.00
59650;BME280;46162;57.568;25.814;2023-09-19T09:29:44;99880.19;;;20.03;100.00
59650;BME280;46162;57.568;25.814;2023-09-19T09:32:20;99883.81;;;20.15;100.00
59650;BME280;46162;57.568;25.814;2023-09-19T09:34:52;99882.16;;;20.14;100.00
59650;BME280;46162;57.568;25.814;2023-09-19T09:37:25;99886.19;;;20.11;100.00
59650;BME280;46162;57.568;25.814;2023-09-19T09:39:57;99875.59;;;20.15;100.00
59650;BME280;46162;57.568;25.814;2023-09-19T09:42:37;99877.53;;;20.26;100.00
59650;BME280;46162;57.568;25.814;2023-09-19T09:45:15;99870.63;;;20.24;100.00
59650;BME280;46162;57.568;25.814;2023-09-19T09:47:45;99879.53;;;20.19;100.00
59650;BME280;46162;57.568;25.814;2023-09-19T09:50:30;99872.66;;;20.28;100.00
59650;BME280;46162;57.568;25.814;2023-09-19T09:53:24;99876.31;;;20.22;100.00
59650;BME280;46162;57.568;25.814;2023-09-19T09:56:02;99878.25;;;20.33;100.00
59650;BME280;46162;57.568;25.814;2023-09-19T09:58:34;99862.53;;;20.29;100.00
59650;BME280;46162;57.568;25.814;2023-09-19T10:01:04;99866.13;;;20.41;100.00
59650;BME280;46162;57.568;25.814;2023-09-19T10:03:38;99875.78;;;20.44;100.00
59650;BME280;46162;57.568;25.814;2023-09-19T10:06:12;99863.41;;;20.53;100.00
59650;BME280;46162;57.568;25.814;2023-09-19T10:09:01;99861.16;;;20.61;100.00
59650;BME280;46162;57.568;25.814;2023-09-19T10:11:41;99861.16;;;20.73;100.00
59650;BME280;46162;57.568;25.814;2023-09-19T10:14:12;99863.06;;;20.61;100.00
59650;BME280;46162;57.568;25.814;2023-09-19T10:16:45;99853.19;;;20.60;100.00
59650;BME280;46162;57.568;25.814;2023-09-19T10:19:21;99858.53;;;20.55;100.00
59650;BME280;46162;57.568;25.814;2023-09-19T10:21:55;99857.47;;;20.68;100.00
59650;BME280;46162;57.568;25.814;2023-09-19T10:24:26;99851.22;;;20.49;100.00
59650;BME280;46162;57.568;25.814;2023-09-19T10:26:59;99858.72;;;20.41;100.00
59650;BME280;46162;57.568;25.814;2023-09-19T10:29:29;99857.03;;;20.52;100.00
59650;BME280;46162;57.568;25.814;2023-09-19T10:32:03;99848.81;;;20.52;100.00
59650;BME280;46162;57.568;25.814;2023-09-19T10:34:36;99843.81;;;20.49;100.00
59650;BME280;46162;57.568;25.814;2023-09-19T10:37:12;99843.13;;;20.54;100.00
59650;BME280;46162;57.568;25.814;2023-09-19T10:39:45;99845.03;;;20.53;100.00
59650;BME280;46162;57.568;25.814;2023-09-19T10:42:19;99835.03;;;20.71;100.00
59650;BME280;46162;57.568;25.814;2023-09-19T10:44:51;99844.31;;;20.81;100.00
59650;BME280;46162;57.568;25.814;2023-09-19T10:47:21;99831.69;;;20.80;100.00
59650;BME280;46162;57.568;25.814;2023-09-19T10:49:51;99829.66;;;20.76;100.00
59650;BME280;46162;57.568;25.814;2023-09-19T10:52:24;99820.72;;;20.80;100.00
59650;BME280;46162;57.568;25.814;2023-09-19T10:54:56;99823.69;;;20.91;100.00
59650;BME280;46162;57.568;25.814;2023-09-19T10:57:29;99826.91;;;20.99;100.00
59650;BME280;46162;57.568;25.814;2023-09-19T11:00:02;99818.78;;;20.93;100.00
59650;BME280;46162;57.568;25.814;2023-09-19T11:02:32;99811.16;;;20.95;100.00
59650;BME280;46162;57.568;25.814;2023-09-19T11:05:11;99811.72;;;21.09;100.00
59650;BME280;46162;57.568;25.814;2023-09-19T11:08:00;99802.06;;;21.06;100.00
59650;BME280;46162;57.568;25.814;2023-09-19T11:10:46;99799.81;;;21.03;100.00
59650;BME280;46162;57.568;25.814;2023-09-19T11:13:23;99796.66;;;21.11;100.00
59650;BME280;46162;57.568;25.814;2023-09-19T11:16:18;99800.84;;;21.14;100.00
59650;BME280;46162;57.568;25.814;2023-09-19T11:18:54;99798.25;;;21.07;100.00
59650;BME280;46162;57.568;25.814;2023-09-19T11:21:51;99799.22;;;21.01;100.00
59650;BME280;46162;57.568;25.814;2023-09-19T11:24:30;99794.91;;;21.05;100.00
59650;BME280;46162;57.568;25.814;2023-09-19T11:27:14;99794.22;;;20.98;100.00
59650;BME280;46162;57.568;25.814;2023-09-19T11:29:45;99789.91;;;21.02;100.00
59650;BME280;46162;57.568;25.814;2023-09-19T11:32:14;99803.75;;;21.07;100.00
59650;BME280;46162;57.568;25.814;2023-09-19T11:34:48;99796.47;;;21.01;100.00
59650;BME280;46162;57.568;25.814;2023-09-19T11:40:46;99789.00;;;20.85;100.00
59650;BME280;46162;57.568;25.814;2023-09-19T11:43:28;99789.00;;;20.85;100.00
59650;BME280;46162;57.568;25.814;2023-09-19T11:46:04;99769.44;;;20.81;100.00
59650;BME280;46162;57.568;25.814;2023-09-19T11:48:35;99772.88;;;20.76;100.00
59650;BME280;46162;57.568;25.814;2023-09-19T11:51:11;99769.19;;;20.82;100.00
59650;BME280;46162;57.568;25.814;2023-09-19T11:53:43;99766.06;;;20.91;100.00
59650;BME280;46162;57.568;25.814;2023-09-19T11:56:15;99765.13;;;20.97;100.00
59650;BME280;46162;57.568;25.814;2023-09-19T11:58:45;99762.13;;;20.87;100.00
59650;BME280;46162;57.568;25.814;2023-09-19T12:01:22;99759.97;;;20.89;100.00
59650;BME280;46162;57.568;25.814;2023-09-19T12:03:53;99760.19;;;20.99;100.00
59650;BME280;46162;57.568;25.814;2023-09-19T12:06:24;99756.13;;;21.01;100.00
59650;BME280;46162;57.568;25.814;2023-09-19T12:08:54;99752.31;;;21.02;100.00
59650;BME280;46162;57.568;25.814;2023-09-19T12:11:28;99751.22;;;21.03;100.00
59650;BME280;46162;57.568;25.814;2023-09-19T12:13:59;99746.97;;;20.96;100.00
59650;BME280;46162;57.568;25.814;2023-09-19T12:16:28;99744.00;;;20.97;100.00
59650;BME280;46162;57.568;25.814;2023-09-19T12:19:18;99736.81;;;20.96;100.00
59650;BME280;46162;57.568;25.814;2023-09-19T12:21:55;99742.00;;;20.81;100.00
59650;BME280;46162;57.568;25.814;2023-09-19T12:24:26;99744.88;;;20.74;100.00
59650;BME280;46162;57.568;25.814;2023-09-19T12:27:03;99733.56;;;20.71;100.00
59650;BME280;46162;57.568;25.814;2023-09-19T12:29:47;99727.69;;;20.67;100.00
59650;BME280;46162;57.568;25.814;2023-09-19T12:32:17;99730.34;;;20.62;100.00
59650;BME280;46162;57.568;25.814;2023-09-19T12:34:52;99723.19;;;20.61;100.00
59650;BME280;46162;57.568;25.814;2023-09-19T12:37:22;99723.69;;;20.58;100.00
59650;BME280;46162;57.568;25.814;2023-09-19T12:40:04;99711.41;;;20.60;100.00
59650;BME280;46162;57.568;25.814;2023-09-19T12:42:46;99719.25;;;20.69;100.00
59650;BME280;46162;57.568;25.814;2023-09-19T12:45:16;99717.31;;;20.69;100.00
59650;BME280;46162;57.568;25.814;2023-09-19T12:48:19;99718.66;;;20.67;100.00
59650;BME280;46162;57.568;25.814;2023-09-19T12:51:05;99714.25;;;20.66;100.00
59650;BME280;46162;57.568;25.814;2023-09-19T12:53:36;99711.94;;;20.74;100.00
59650;BME280;46162;57.568;25.814;2023-09-19T12:56:09;99715.50;;;20.87;100.00
59650;BME280;46162;57.568;25.814;2023-09-19T12:58:54;99710.97;;;20.92;100.00
59650;BME280;46162;57.568;25.814;2023-09-19T13:01:24;99715.84;;;20.90;100.00
59650;BME280;46162;57.568;25.814;2023-09-19T13:04:14;99712.28;;;20.90;100.00
59650;BME280;46162;57.568;25.814;2023-09-19T13:06:49;99714.41;;;20.99;100.00